sensor_id;sensor_type;location;lat;lon;timestamp;temperature;humidity
15328;DHT22;7764;51.430;6.840;2023-02-01T00:00:15;6.60;99.90
15328;DHT22;7764;51.430;6.840;2023-02-01T00:02:42;6.50;99.90
15328;DHT22;7764;51.430;6.840;2023-02-01T00:05:10;6.60;99.90
15328;DHT22;7764;51.430;6.840;2023-02-01T00:07:37;6.60;99.90
15328;DHT22;7764;51.430;6.840;2023-02-01T00:10:06;6.50;99.90
15328;DHT22;7764;51.430;6.840;2023-02-01T00:12:33;6.60;99.90
15328;DHT22;7764;51.430;6.840;2023-02-01T00:15:02;6.60;99.90
15328;DHT22;7764;51.430;6.840;2023-02-01T00:17:29;6.60;99.90
15328;DHT22;7764;51.430;6.840;2023-02-01T00:19:55;6.60;99.90
15328;DHT22;7764;51.430;6.840;2023-02-01T00:22:22;6.60;99.90
15328;DHT22;7764;51.430;6.840;2023-02-01T00:24:49;6.60;99.90
15328;DHT22;7764;51.430;6.840;2023-02-01T00:27:17;6.60;99.90
15328;DHT22;7764;51.430;6.840;2023-02-01T00:29:46;6.60;99.90
15328;DHT22;7764;51.430;6.840;2023-02-01T00:32:14;6.60;99.90
15328;DHT22;7764;51.430;6.840;2023-02-01T00:34:41;6.60;99.90
15328;DHT22;7764;51.430;6.840;2023-02-01T00:37:08;6.60;99.90
15328;DHT22;7764;51.430;6.840;2023-02-01T00:39:35;6.60;99.90
15328;DHT22;7764;51.430;6.840;2023-02-01T00:42:02;6.60;99.90
15328;DHT22;7764;51.430;6.840;2023-02-01T00:44:29;6.60;99.90
15328;DHT22;7764;51.430;6.840;2023-02-01T00:46:59;6.60;99.90
15328;DHT22;7764;51.430;6.840;2023-02-01T00:49:28;6.50;99.90
15328;DHT22;7764;51.430;6.840;2023-02-01T00:51:55;6.50;99.90
15328;DHT22;7764;51.430;6.840;2023-02-01T00:54:22;6.50;99.90
15328;DHT22;7764;51.430;6.840;2023-02-01T00:56:49;6.60;99.90
15328;DHT22;7764;51.430;6.840;2023-02-01T00:59:16;6.60;99.90
15328;DHT22;7764;51.430;6.840;2023-02-01T01:01:42;6.70;99.90
15328;DHT22;7764;51.430;6.840;2023-02-01T01:04:09;6.70;99.90
15328;DHT22;7764;51.430;6.840;2023-02-01T01:06:38;6.70;99.90
15328;DHT22;7764;51.430;6.840;2023-02-01T01:09:06;6.70;99.90
15328;DHT22;7764;51.430;6.840;2023-02-01T01:11:36;6.80;99.90
15328;DHT22;7764;51.430;6.840;2023-02-01T01:14:05;6.80;99.90
15328;DHT22;7764;51.430;6.840;2023-02-01T01:16:33;6.80;99.90
15328;DHT22;7764;51.430;6.840;2023-02-01T01:19:01;6.80;99.90
15328;DHT22;7764;51.430;6.840;2023-02-01T01:21:29;6.80;99.90
15328;DHT22;7764;51.430;6.840;2023-02-01T01:23:58;6.80;99.90
15328;DHT22;7764;51.430;6.840;2023-02-01T01:26:26;6.80;99.90
15328;DHT22;7764;51.430;6.840;2023-02-01T01:28:55;6.80;99.90
15328;DHT22;7764;51.430;6.840;2023-02-01T01:31:23;6.80;99.90
15328;DHT22;7764;51.430;6.840;2023-02-01T01:33:51;6.90;99.90
15328;DHT22;7764;51.430;6.840;2023-02-01T01:36:18;6.80;99.90
15328;DHT22;7764;51.430;6.840;2023-02-01T01:38:45;6.80;99.90
15328;DHT22;7764;51.430;6.840;2023-02-01T01:41:16;6.70;99.90
15328;DHT22;7764;51.430;6.840;2023-02-01T01:43:47;6.70;99.90
15328;DHT22;7764;51.430;6.840;2023-02-01T01:46:17;6.70;99.90
15328;DHT22;7764;51.430;6.840;2023-02-01T01:48:45;6.70;99.90
15328;DHT22;7764;51.430;6.840;2023-02-01T01:51:14;6.70;99.90
15328;DHT22;7764;51.430;6.840;2023-02-01T01:53:46;6.70;99.90
15328;DHT22;7764;51.430;6.840;2023-02-01T01:56:16;6.70;99.90
15328;DHT22;7764;51.430;6.840;2023-02-01T01:58:43;6.70;99.90
15328;DHT22;7764;51.430;6.840;2023-02-01T02:01:10;6.70;99.90
15328;DHT22;7764;51.430;6.840;2023-02-01T02:03:39;6.70;99.90
15328;DHT22;7764;51.430;6.840;2023-02-01T02:06:12;6.70;99.90
15328;DHT22;7764;51.430;6.840;2023-02-01T02:08:41;6.70;99.90
15328;DHT22;7764;51.430;6.840;2023-02-01T02:11:10;6.60;99.90
15328;DHT22;7764;51.430;6.840;2023-02-01T02:13:42;6.60;99.90
15328;DHT22;7764;51.430;6.840;2023-02-01T02:16:19;6.60;99.90
15328;DHT22;7764;51.430;6.840;2023-02-01T02:18:55;6.60;99.90
15328;DHT22;7764;51.430;6.840;2023-02-01T02:21:33;6.50;99.90
15328;DHT22;7764;51.430;6.840;2023-02-01T02:27:15;6.40;99.90
15328;DHT22;7764;51.430;6.840;2023-02-01T02:35:56;6.40;99.90
15328;DHT22;7764;51.430;6.840;2023-02-01T02:38:32;6.40;99.90
15328;DHT22;7764;51.430;6.840;2023-02-01T02:41:08;6.30;99.90
15328;DHT22;7764;51.430;6.840;2023-02-01T02:43:41;6.30;99.90
15328;DHT22;7764;51.430;6.840;2023-02-01T02:46:38;6.30;99.90
15328;DHT22;7764;51.430;6.840;2023-02-01T02:49:29;6.20;99.90
15328;DHT22;7764;51.430;6.840;2023-02-01T02:52:05;6.20;99.90
15328;DHT22;7764;51.430;6.840;2023-02-01T02:54:54;6.10;99.90
15328;DHT22;7764;51.430;6.840;2023-02-01T02:57:26;6.10;99.90
15328;DHT22;7764;51.430;6.840;2023-02-01T03:00:14;6.10;99.90
15328;DHT22;7764;51.430;6.840;2023-02-01T03:03:00;6.00;99.90
15328;DHT22;7764;51.430;6.840;2023-02-01T03:05:46;6.00;99.90
15328;DHT22;7764;51.430;6.840;2023-02-01T03:08:15;6.00;99.90
15328;DHT22;7764;51.430;6.840;2023-02-01T03:10:53;6.00;99.90
15328;DHT22;7764;51.430;6.840;2023-02-01T03:13:30;6.00;99.90
15328;DHT22;7764;51.430;6.840;2023-02-01T03:16:01;6.00;99.90
15328;DHT22;7764;51.430;6.840;2023-02-01T03:18:35;6.00;99.90
15328;DHT22;7764;51.430;6.840;2023-02-01T03:21:07;6.00;99.90
15328;DHT22;7764;51.430;6.840;2023-02-01T03:23:36;6.10;99.90
15328;DHT22;7764;51.430;6.840;2023-02-01T03:26:06;6.10;99.90
15328;DHT22;7764;51.430;6.840;2023-02-01T03:28:35;6.10;99.90
15328;DHT22;7764;51.430;6.840;2023-02-01T03:31:04;6.10;99.90
15328;DHT22;7764;51.430;6.840;2023-02-01T03:33:31;6.10;99.90
15328;DHT22;7764;51.430;6.840;2023-02-01T03:36:05;6.20;99.90
15328;DHT22;7764;51.430;6.840;2023-02-01T03:38:39;6.20;99.90
15328;DHT22;7764;51.430;6.840;2023-02-01T03:41:15;6.20;99.90
15328;DHT22;7764;51.430;6.840;2023-02-01T03:43:50;6.20;99.90
15328;DHT22;7764;51.430;6.840;2023-02-01T03:46:23;6.20;99.90
15328;DHT22;7764;51.430;6.840;2023-02-01T03:48:52;6.30;99.90
15328;DHT22;7764;51.430;6.840;2023-02-01T03:51:20;6.30;99.90
15328;DHT22;7764;51.430;6.840;2023-02-01T03:53:50;6.20;99.90
15328;DHT22;7764;51.430;6.840;2023-02-01T03:56:21;6.30;99.90
15328;DHT22;7764;51.430;6.840;2023-02-01T03:58:48;6.30;99.90
15328;DHT22;7764;51.430;6.840;2023-02-01T04:01:25;6.30;99.90
15328;DHT22;7764;51.430;6.840;2023-02-01T04:03:53;6.30;99.90
15328;DHT22;7764;51.430;6.840;2023-02-01T04:06:20;6.30;99.90
15328;DHT22;7764;51.430;6.840;2023-02-01T04:08:46;6.30;99.90
15328;DHT22;7764;51.430;6.840;2023-02-01T04:11:15;6.30;99.90
15328;DHT22;7764;51.430;6.840;2023-02-01T04:13:42;6.30;99.90
15328;DHT22;7764;51.430;6.840;2023-02-01T04:16:09;6.30;99.90
15328;DHT22;7764;51.430;6.840;2023-02-01T04:18:35;6.20;99.90
15328;DHT22;7764;51.430;6.840;2023-02-01T04:21:03;6.20;99.90
15328;DHT22;7764;51.430;6.840;2023-02-01T04:23:30;6.20;99.90
15328;DHT22;7764;51.430;6.840;2023-02-01T04:26:01;6.20;99.90
15328;DHT22;7764;51.430;6.840;2023-02-01T04:28:30;6.20;99.90
15328;DHT22;7764;51.430;6.840;2023-02-01T04:30:57;6.10;99.90
15328;DHT22;7764;51.430;6.840;2023-02-01T04:33:24;6.10;99.90
15328;DHT22;7764;51.430;6.840;2023-02-01T04:35:51;6.20;99.90
15328;DHT22;7764;51.430;6.840;2023-02-01T04:38:18;6.20;99.90
15328;DHT22;7764;51.430;6.840;2023-02-01T04:40:47;6.20;99.90
15328;DHT22;7764;51.430;6.840;2023-02-01T04:43:14;6.20;99.90
15328;DHT22;7764;51.430;6.840;2023-02-01T04:45:46;6.20;99.90
15328;DHT22;7764;51.430;6.840;2023-02-01T04:48:13;6.20;99.90
15328;DHT22;7764;51.430;6.840;2023-02-01T04:50:40;6.20;99.90
15328;DHT22;7764;51.430;6.840;2023-02-01T04:53:07;6.30;99.90
15328;DHT22;7764;51.430;6.840;2023-02-01T04:55:34;6.30;99.90
15328;DHT22;7764;51.430;6.840;2023-02-01T04:58:01;6.30;99.90
15328;DHT22;7764;51.430;6.840;2023-02-01T05:00:27;6.30;99.90
15328;DHT22;7764;51.430;6.840;2023-02-01T05:02:55;6.30;99.90
15328;DHT22;7764;51.430;6.840;2023-02-01T05:05:22;6.30;99.90
15328;DHT22;7764;51.430;6.840;2023-02-01T05:07:49;6.30;99.90
15328;DHT22;7764;51.430;6.840;2023-02-01T05:10:16;6.30;99.90
15328;DHT22;7764;51.430;6.840;2023-02-01T05:12:43;6.30;99.90
15328;DHT22;7764;51.430;6.840;2023-02-01T05:15:28;6.30;99.90
15328;DHT22;7764;51.430;6.840;2023-02-01T05:17:56;6.20;99.90
15328;DHT22;7764;51.430;6.840;2023-02-01T05:20:23;6.20;99.90
15328;DHT22;7764;51.430;6.840;2023-02-01T05:22:50;6.20;99.90
15328;DHT22;7764;51.430;6.840;2023-02-01T05:25:17;6.20;99.90
15328;DHT22;7764;51.430;6.840;2023-02-01T05:27:44;6.20;99.90
15328;DHT22;7764;51.430;6.840;2023-02-01T05:30:12;6.20;99.90
15328;DHT22;7764;51.430;6.840;2023-02-01T05:32:39;6.20;99.90
15328;DHT22;7764;51.430;6.840;2023-02-01T05:35:08;6.10;99.90
15328;DHT22;7764;51.430;6.840;2023-02-01T05:37:35;6.10;99.90
15328;DHT22;7764;51.430;6.840;2023-02-01T05:40:03;6.10;99.90
15328;DHT22;7764;51.430;6.840;2023-02-01T05:42:30;6.10;99.90
15328;DHT22;7764;51.430;6.840;2023-02-01T05:44:57;6.10;99.90
15328;DHT22;7764;51.430;6.840;2023-02-01T05:47:24;6.10;99.90
15328;DHT22;7764;51.430;6.840;2023-02-01T05:49:51;6.10;99.90
15328;DHT22;7764;51.430;6.840;2023-02-01T05:52:19;6.00;99.90
15328;DHT22;7764;51.430;6.840;2023-02-01T05:54:47;6.00;99.90
15328;DHT22;7764;51.430;6.840;2023-02-01T05:57:14;6.00;99.90
15328;DHT22;7764;51.430;6.840;2023-02-01T05:59:41;6.00;99.90
15328;DHT22;7764;51.430;6.840;2023-02-01T06:02:10;6.00;99.90
15328;DHT22;7764;51.430;6.840;2023-02-01T06:04:37;5.90;99.90
15328;DHT22;7764;51.430;6.840;2023-02-01T06:07:04;6.00;99.90
15328;DHT22;7764;51.430;6.840;2023-02-01T06:09:34;6.00;99.90
15328;DHT22;7764;51.430;6.840;2023-02-01T06:12:01;6.00;99.90
15328;DHT22;7764;51.430;6.840;2023-02-01T06:14:28;6.00;99.90
15328;DHT22;7764;51.430;6.840;2023-02-01T06:16:55;6.00;99.90
15328;DHT22;7764;51.430;6.840;2023-02-01T06:19:23;6.10;99.90
15328;DHT22;7764;51.430;6.840;2023-02-01T06:21:50;6.20;99.90
15328;DHT22;7764;51.430;6.840;2023-02-01T06:24:17;6.30;99.90
15328;DHT22;7764;51.430;6.840;2023-02-01T06:26:45;6.30;99.90
15328;DHT22;7764;51.430;6.840;2023-02-01T06:29:12;6.30;99.90
15328;DHT22;7764;51.430;6.840;2023-02-01T06:31:39;6.30;99.90
15328;DHT22;7764;51.430;6.840;2023-02-01T06:34:07;6.30;99.90
15328;DHT22;7764;51.430;6.840;2023-02-01T06:36:34;6.30;99.90
15328;DHT22;7764;51.430;6.840;2023-02-01T06:39:01;6.30;99.90
15328;DHT22;7764;51.430;6.840;2023-02-01T06:41:29;6.40;99.90
15328;DHT22;7764;51.430;6.840;2023-02-01T06:43:57;6.40;99.90
15328;DHT22;7764;51.430;6.840;2023-02-01T06:46:24;6.40;99.90
15328;DHT22;7764;51.430;6.840;2023-02-01T06:48:51;6.50;99.90
15328;DHT22;7764;51.430;6.840;2023-02-01T06:51:22;6.60;99.90
15328;DHT22;7764;51.430;6.840;2023-02-01T06:53:49;6.60;99.90
15328;DHT22;7764;51.430;6.840;2023-02-01T06:56:16;6.60;99.90
15328;DHT22;7764;51.430;6.840;2023-02-01T06:58:43;6.60;99.90
15328;DHT22;7764;51.430;6.840;2023-02-01T07:01:12;6.60;99.90
15328;DHT22;7764;51.430;6.840;2023-02-01T07:03:40;6.60;99.90
15328;DHT22;7764;51.430;6.840;2023-02-01T07:06:07;6.60;99.90
15328;DHT22;7764;51.430;6.840;2023-02-01T07:08:36;6.60;99.90
15328;DHT22;7764;51.430;6.840;2023-02-01T07:11:03;6.70;99.90
15328;DHT22;7764;51.430;6.840;2023-02-01T07:13:30;6.70;99.90
15328;DHT22;7764;51.430;6.840;2023-02-01T07:15:58;6.70;99.90
15328;DHT22;7764;51.430;6.840;2023-02-01T07:18:27;6.70;99.90
15328;DHT22;7764;51.430;6.840;2023-02-01T07:20:54;6.70;99.90
15328;DHT22;7764;51.430;6.840;2023-02-01T07:23:21;6.80;99.90
15328;DHT22;7764;51.430;6.840;2023-02-01T07:25:48;6.70;99.90
15328;DHT22;7764;51.430;6.840;2023-02-01T07:28:15;6.80;99.90
15328;DHT22;7764;51.430;6.840;2023-02-01T07:30:42;6.80;99.90
15328;DHT22;7764;51.430;6.840;2023-02-01T07:33:09;6.80;99.90
15328;DHT22;7764;51.430;6.840;2023-02-01T07:35:37;6.80;99.90
15328;DHT22;7764;51.430;6.840;2023-02-01T07:38:04;6.70;99.90
15328;DHT22;7764;51.430;6.840;2023-02-01T07:40:31;6.80;99.90
15328;DHT22;7764;51.430;6.840;2023-02-01T07:42:57;6.80;99.90
15328;DHT22;7764;51.430;6.840;2023-02-01T07:45:25;6.90;99.90
15328;DHT22;7764;51.430;6.840;2023-02-01T07:47:52;6.90;99.90
15328;DHT22;7764;51.430;6.840;2023-02-01T07:50:19;6.80;99.90
15328;DHT22;7764;51.430;6.840;2023-02-01T07:52:48;6.90;99.90
15328;DHT22;7764;51.430;6.840;2023-02-01T07:55:15;6.90;99.90
15328;DHT22;7764;51.430;6.840;2023-02-01T07:57:42;6.90;99.90
15328;DHT22;7764;51.430;6.840;2023-02-01T08:00:09;6.90;99.90
15328;DHT22;7764;51.430;6.840;2023-02-01T08:02:54;6.90;99.90
15328;DHT22;7764;51.430;6.840;2023-02-01T08:05:21;7.00;99.90
15328;DHT22;7764;51.430;6.840;2023-02-01T08:07:50;7.00;99.90
15328;DHT22;7764;51.430;6.840;2023-02-01T08:10:17;7.00;99.90
15328;DHT22;7764;51.430;6.840;2023-02-01T08:12:45;6.90;99.90
15328;DHT22;7764;51.430;6.840;2023-02-01T08:15:13;7.00;99.90
15328;DHT22;7764;51.430;6.840;2023-02-01T08:17:46;7.00;99.90
15328;DHT22;7764;51.430;6.840;2023-02-01T08:20:13;6.90;99.90
15328;DHT22;7764;51.430;6.840;2023-02-01T08:22:41;6.90;99.90
15328;DHT22;7764;51.430;6.840;2023-02-01T08:25:10;6.90;99.90
15328;DHT22;7764;51.430;6.840;2023-02-01T08:27:38;7.00;99.90
15328;DHT22;7764;51.430;6.840;2023-02-01T08:30:06;6.90;99.90
15328;DHT22;7764;51.430;6.840;2023-02-01T08:32:34;6.90;99.90
15328;DHT22;7764;51.430;6.840;2023-02-01T08:35:01;7.00;99.90
15328;DHT22;7764;51.430;6.840;2023-02-01T08:37:28;6.90;99.90
15328;DHT22;7764;51.430;6.840;2023-02-01T08:39:55;6.90;99.90
15328;DHT22;7764;51.430;6.840;2023-02-01T08:42:23;7.00;99.90
15328;DHT22;7764;51.430;6.840;2023-02-01T08:45:08;7.00;99.90
15328;DHT22;7764;51.430;6.840;2023-02-01T08:47:35;7.00;99.90
15328;DHT22;7764;51.430;6.840;2023-02-01T08:50:03;7.00;99.90
15328;DHT22;7764;51.430;6.840;2023-02-01T08:52:30;7.00;99.90
15328;DHT22;7764;51.430;6.840;2023-02-01T08:54:57;7.20;99.90
15328;DHT22;7764;51.430;6.840;2023-02-01T08:57:25;7.10;99.90
15328;DHT22;7764;51.430;6.840;2023-02-01T08:59:52;7.20;99.90
15328;DHT22;7764;51.430;6.840;2023-02-01T09:02:19;7.30;99.90
15328;DHT22;7764;51.430;6.840;2023-02-01T09:04:46;7.30;99.90
15328;DHT22;7764;51.430;6.840;2023-02-01T09:07:12;7.20;99.90
15328;DHT22;7764;51.430;6.840;2023-02-01T09:09:39;7.20;99.90
15328;DHT22;7764;51.430;6.840;2023-02-01T09:12:06;7.20;99.90
15328;DHT22;7764;51.430;6.840;2023-02-01T09:14:35;7.10;99.90
15328;DHT22;7764;51.430;6.840;2023-02-01T09:17:02;7.10;99.90
15328;DHT22;7764;51.430;6.840;2023-02-01T09:19:30;7.20;99.90
15328;DHT22;7764;51.430;6.840;2023-02-01T09:21:57;7.20;99.90
15328;DHT22;7764;51.430;6.840;2023-02-01T09:24:24;7.20;99.90
15328;DHT22;7764;51.430;6.840;2023-02-01T09:26:51;7.20;99.90
15328;DHT22;7764;51.430;6.840;2023-02-01T09:29:18;7.20;99.90
15328;DHT22;7764;51.430;6.840;2023-02-01T09:31:47;7.30;99.90
15328;DHT22;7764;51.430;6.840;2023-02-01T09:34:14;7.30;99.90
15328;DHT22;7764;51.430;6.840;2023-02-01T09:36:41;7.30;99.90
15328;DHT22;7764;51.430;6.840;2023-02-01T09:39:07;7.30;99.90
15328;DHT22;7764;51.430;6.840;2023-02-01T09:41:46;7.30;99.90
15328;DHT22;7764;51.430;6.840;2023-02-01T09:44:29;7.50;99.90
15328;DHT22;7764;51.430;6.840;2023-02-01T09:47:01;7.50;99.90
15328;DHT22;7764;51.430;6.840;2023-02-01T09:49:30;7.50;99.90
15328;DHT22;7764;51.430;6.840;2023-02-01T09:51:59;7.60;99.90
15328;DHT22;7764;51.430;6.840;2023-02-01T09:54:33;7.60;99.90
15328;DHT22;7764;51.430;6.840;2023-02-01T09:57:07;7.60;99.90
15328;DHT22;7764;51.430;6.840;2023-02-01T09:59:39;7.80;99.90
15328;DHT22;7764;51.430;6.840;2023-02-01T10:02:13;7.80;99.90
15328;DHT22;7764;51.430;6.840;2023-02-01T10:04:41;7.80;99.90
15328;DHT22;7764;51.430;6.840;2023-02-01T10:07:17;7.80;99.90
15328;DHT22;7764;51.430;6.840;2023-02-01T10:09:58;7.80;99.90
15328;DHT22;7764;51.430;6.840;2023-02-01T10:12:56;7.80;99.90
15328;DHT22;7764;51.430;6.840;2023-02-01T10:15:40;8.00;99.90
15328;DHT22;7764;51.430;6.840;2023-02-01T10:21:12;7.90;99.90
15328;DHT22;7764;51.430;6.840;2023-02-01T10:24:14;8.00;99.90
15328;DHT22;7764;51.430;6.840;2023-02-01T10:26:45;8.10;99.90
15328;DHT22;7764;51.430;6.840;2023-02-01T10:29:16;8.20;99.90
15328;DHT22;7764;51.430;6.840;2023-02-01T10:31:44;8.10;99.90
15328;DHT22;7764;51.430;6.840;2023-02-01T10:34:18;8.10;99.90
15328;DHT22;7764;51.430;6.840;2023-02-01T10:36:53;8.10;99.90
15328;DHT22;7764;51.430;6.840;2023-02-01T10:39:20;8.10;99.90
15328;DHT22;7764;51.430;6.840;2023-02-01T10:41:48;8.10;99.90
15328;DHT22;7764;51.430;6.840;2023-02-01T10:44:18;8.10;99.90
15328;DHT22;7764;51.430;6.840;2023-02-01T10:46:47;8.00;99.90
15328;DHT22;7764;51.430;6.840;2023-02-01T10:49:18;7.90;99.90
15328;DHT22;7764;51.430;6.840;2023-02-01T10:51:52;8.00;99.90
15328;DHT22;7764;51.430;6.840;2023-02-01T10:54:21;8.10;99.90
15328;DHT22;7764;51.430;6.840;2023-02-01T10:56:57;8.20;99.90
15328;DHT22;7764;51.430;6.840;2023-02-01T10:59:27;8.20;99.90
15328;DHT22;7764;51.430;6.840;2023-02-01T11:01:59;8.10;99.90
15328;DHT22;7764;51.430;6.840;2023-02-01T11:04:32;8.20;99.90
15328;DHT22;7764;51.430;6.840;2023-02-01T11:07:06;8.10;99.90
15328;DHT22;7764;51.430;6.840;2023-02-01T11:09:35;8.20;99.90
15328;DHT22;7764;51.430;6.840;2023-02-01T11:12:06;8.30;99.90
15328;DHT22;7764;51.430;6.840;2023-02-01T11:14:47;8.20;99.90
15328;DHT22;7764;51.430;6.840;2023-02-01T11:17:26;8.30;99.90
15328;DHT22;7764;51.430;6.840;2023-02-01T11:20:15;8.30;99.90
15328;DHT22;7764;51.430;6.840;2023-02-01T11:22:46;8.30;99.90
15328;DHT22;7764;51.430;6.840;2023-02-01T11:25:16;8.30;99.90
15328;DHT22;7764;51.430;6.840;2023-02-01T11:27:43;8.30;99.90
15328;DHT22;7764;51.430;6.840;2023-02-01T11:30:15;8.20;99.90
15328;DHT22;7764;51.430;6.840;2023-02-01T11:32:43;8.30;99.90
15328;DHT22;7764;51.430;6.840;2023-02-01T11:35:15;8.30;99.90
15328;DHT22;7764;51.430;6.840;2023-02-01T11:37:44;8.40;99.90
15328;DHT22;7764;51.430;6.840;2023-02-01T11:40:25;8.50;99.90
15328;DHT22;7764;51.430;6.840;2023-02-01T11:42:54;8.60;99.90
15328;DHT22;7764;51.430;6.840;2023-02-01T11:45:26;8.60;99.90
15328;DHT22;7764;51.430;6.840;2023-02-01T11:47:53;8.60;99.90
15328;DHT22;7764;51.430;6.840;2023-02-01T11:50:37;8.50;99.90
15328;DHT22;7764;51.430;6.840;2023-02-01T11:53:24;8.50;99.90
15328;DHT22;7764;51.430;6.840;2023-02-01T11:56:07;8.30;99.90
15328;DHT22;7764;51.430;6.840;2023-02-01T11:58:50;8.30;99.90
15328;DHT22;7764;51.430;6.840;2023-02-01T12:01:43;8.30;99.90
15328;DHT22;7764;51.430;6.840;2023-02-01T12:07:25;8.10;99.90
15328;DHT22;7764;51.430;6.840;2023-02-01T12:10:05;8.00;99.90
15328;DHT22;7764;51.430;6.840;2023-02-01T12:12:40;8.00;99.90
15328;DHT22;7764;51.430;6.840;2023-02-01T12:15:18;8.00;99.90
15328;DHT22;7764;51.430;6.840;2023-02-01T12:20:56;8.00;99.90
15328;DHT22;7764;51.430;6.840;2023-02-01T12:23:37;8.10;99.90
15328;DHT22;7764;51.430;6.840;2023-02-01T12:26:35;8.10;99.90
15328;DHT22;7764;51.430;6.840;2023-02-01T12:29:18;8.10;99.90
15328;DHT22;7764;51.430;6.840;2023-02-01T12:32:04;8.20;99.90
15328;DHT22;7764;51.430;6.840;2023-02-01T12:37:38;8.30;99.90
15328;DHT22;7764;51.430;6.840;2023-02-01T12:40:20;8.30;99.90
15328;DHT22;7764;51.430;6.840;2023-02-01T12:42:53;8.30;99.90
15328;DHT22;7764;51.430;6.840;2023-02-01T12:45:31;8.40;99.90
15328;DHT22;7764;51.430;6.840;2023-02-01T12:48:05;8.30;99.90
15328;DHT22;7764;51.430;6.840;2023-02-01T12:50:43;8.40;99.90
15328;DHT22;7764;51.430;6.840;2023-02-01T12:53:17;8.40;99.90
15328;DHT22;7764;51.430;6.840;2023-02-01T12:55:50;8.40;99.90
15328;DHT22;7764;51.430;6.840;2023-02-01T12:58:22;8.40;99.90
15328;DHT22;7764;51.430;6.840;2023-02-01T13:00:54;8.40;99.90
15328;DHT22;7764;51.430;6.840;2023-02-01T13:03:31;8.50;99.90
15328;DHT22;7764;51.430;6.840;2023-02-01T13:06:04;8.40;99.90
15328;DHT22;7764;51.430;6.840;2023-02-01T13:08:39;8.40;99.90
15328;DHT22;7764;51.430;6.840;2023-02-01T13:11:11;8.50;99.90
15328;DHT22;7764;51.430;6.840;2023-02-01T13:13:46;8.50;99.90
15328;DHT22;7764;51.430;6.840;2023-02-01T13:16:16;8.40;99.90
15328;DHT22;7764;51.430;6.840;2023-02-01T13:18:49;8.40;99.90
15328;DHT22;7764;51.430;6.840;2023-02-01T13:21:20;8.40;99.90
15328;DHT22;7764;51.430;6.840;2023-02-01T13:23:48;8.40;99.90
15328;DHT22;7764;51.430;6.840;2023-02-01T13:26:17;8.40;99.90
15328;DHT22;7764;51.430;6.840;2023-02-01T13:28:46;8.40;99.90
15328;DHT22;7764;51.430;6.840;2023-02-01T13:31:36;8.40;99.90
15328;DHT22;7764;51.430;6.840;2023-02-01T13:34:32;8.40;99.90
15328;DHT22;7764;51.430;6.840;2023-02-01T13:37:14;8.40;99.90
15328;DHT22;7764;51.430;6.840;2023-02-01T13:39:52;8.50;99.90
15328;DHT22;7764;51.430;6.840;2023-02-01T13:42:26;8.50;99.90
15328;DHT22;7764;51.430;6.840;2023-02-01T13:44:57;8.50;99.90
15328;DHT22;7764;51.430;6.840;2023-02-01T13:47:28;8.60;99.90
15328;DHT22;7764;51.430;6.840;2023-02-01T13:49:58;8.60;99.90
15328;DHT22;7764;51.430;6.840;2023-02-01T13:52:34;8.60;99.90
15328;DHT22;7764;51.430;6.840;2023-02-01T13:55:28;8.60;99.90
15328;DHT22;7764;51.430;6.840;2023-02-01T13:58:15;8.60;99.90
15328;DHT22;7764;51.430;6.840;2023-02-01T14:00:44;8.60;99.90
15328;DHT22;7764;51.430;6.840;2023-02-01T14:03:16;8.60;99.90
15328;DHT22;7764;51.430;6.840;2023-02-01T14:09:32;8.60;99.90
15328;DHT22;7764;51.430;6.840;2023-02-01T14:17:55;8.70;99.90
15328;DHT22;7764;51.430;6.840;2023-02-01T14:20:43;8.70;99.90
15328;DHT22;7764;51.430;6.840;2023-02-01T14:23:19;8.80;99.90
15328;DHT22;7764;51.430;6.840;2023-02-01T14:25:58;8.80;99.90
15328;DHT22;7764;51.430;6.840;2023-02-01T14:28:29;8.70;99.90
15328;DHT22;7764;51.430;6.840;2023-02-01T14:30:57;8.80;99.90
15328;DHT22;7764;51.430;6.840;2023-02-01T14:33:27;8.80;99.90
15328;DHT22;7764;51.430;6.840;2023-02-01T14:36:06;8.80;99.90
15328;DHT22;7764;51.430;6.840;2023-02-01T14:38:35;8.80;99.90
15328;DHT22;7764;51.430;6.840;2023-02-01T14:41:25;8.80;99.90
15328;DHT22;7764;51.430;6.840;2023-02-01T14:44:21;8.80;99.90
15328;DHT22;7764;51.430;6.840;2023-02-01T14:53:13;8.80;99.90
15328;DHT22;7764;51.430;6.840;2023-02-01T14:55:43;8.90;99.90
15328;DHT22;7764;51.430;6.840;2023-02-01T14:58:16;8.80;99.90
15328;DHT22;7764;51.430;6.840;2023-02-01T15:00:50;8.80;99.90
15328;DHT22;7764;51.430;6.840;2023-02-01T15:03:47;8.80;99.90
15328;DHT22;7764;51.430;6.840;2023-02-01T15:06:32;8.80;99.90
15328;DHT22;7764;51.430;6.840;2023-02-01T15:09:03;8.80;99.90
15328;DHT22;7764;51.430;6.840;2023-02-01T15:11:30;8.80;99.90
15328;DHT22;7764;51.430;6.840;2023-02-01T15:13:57;8.80;99.90
15328;DHT22;7764;51.430;6.840;2023-02-01T15:16:26;8.80;99.90
15328;DHT22;7764;51.430;6.840;2023-02-01T15:19:10;8.80;99.90
15328;DHT22;7764;51.430;6.840;2023-02-01T15:21:46;8.90;99.90
15328;DHT22;7764;51.430;6.840;2023-02-01T15:24:17;8.90;99.90
15328;DHT22;7764;51.430;6.840;2023-02-01T15:26:45;8.90;99.90
15328;DHT22;7764;51.430;6.840;2023-02-01T15:29:13;8.90;99.90
15328;DHT22;7764;51.430;6.840;2023-02-01T15:31:44;8.90;99.90
15328;DHT22;7764;51.430;6.840;2023-02-01T15:34:12;8.90;99.90
15328;DHT22;7764;51.430;6.840;2023-02-01T15:36:39;8.90;99.90
15328;DHT22;7764;51.430;6.840;2023-02-01T15:39:18;8.90;99.90
15328;DHT22;7764;51.430;6.840;2023-02-01T15:41:50;8.90;99.90
15328;DHT22;7764;51.430;6.840;2023-02-01T15:44:22;8.80;99.90
15328;DHT22;7764;51.430;6.840;2023-02-01T15:46:50;8.90;99.90
15328;DHT22;7764;51.430;6.840;2023-02-01T15:49:22;8.80;99.90
15328;DHT22;7764;51.430;6.840;2023-02-01T15:51:50;8.90;99.90
15328;DHT22;7764;51.430;6.840;2023-02-01T15:54:20;8.90;99.90
15328;DHT22;7764;51.430;6.840;2023-02-01T15:56:51;8.90;99.90
15328;DHT22;7764;51.430;6.840;2023-02-01T15:59:22;8.90;99.90
15328;DHT22;7764;51.430;6.840;2023-02-01T16:01:51;8.90;99.90
15328;DHT22;7764;51.430;6.840;2023-02-01T16:04:20;8.90;99.90
15328;DHT22;7764;51.430;6.840;2023-02-01T16:06:50;8.80;99.90
15328;DHT22;7764;51.430;6.840;2023-02-01T16:09:20;8.90;99.90
15328;DHT22;7764;51.430;6.840;2023-02-01T16:11:53;8.80;99.90
15328;DHT22;7764;51.430;6.840;2023-02-01T16:14:21;8.80;99.90
15328;DHT22;7764;51.430;6.840;2023-02-01T16:16:48;8.80;99.90
15328;DHT22;7764;51.430;6.840;2023-02-01T16:19:15;8.80;99.90
15328;DHT22;7764;51.430;6.840;2023-02-01T16:21:42;8.80;99.90
15328;DHT22;7764;51.430;6.840;2023-02-01T16:24:09;8.80;99.90
15328;DHT22;7764;51.430;6.840;2023-02-01T16:26:38;8.70;99.90
15328;DHT22;7764;51.430;6.840;2023-02-01T16:29:05;8.60;99.90
15328;DHT22;7764;51.430;6.840;2023-02-01T16:31:35;8.50;99.90
15328;DHT22;7764;51.430;6.840;2023-02-01T16:34:03;8.50;99.90
15328;DHT22;7764;51.430;6.840;2023-02-01T16:36:30;8.40;99.90
15328;DHT22;7764;51.430;6.840;2023-02-01T16:38:57;8.50;99.90
15328;DHT22;7764;51.430;6.840;2023-02-01T16:41:25;8.50;99.90
15328;DHT22;7764;51.430;6.840;2023-02-01T16:43:55;8.50;99.90
15328;DHT22;7764;51.430;6.840;2023-02-01T16:46:24;8.60;99.90
15328;DHT22;7764;51.430;6.840;2023-02-01T16:48:53;8.60;99.90
15328;DHT22;7764;51.430;6.840;2023-02-01T16:51:21;8.60;99.90
15328;DHT22;7764;51.430;6.840;2023-02-01T16:53:49;8.60;99.90
15328;DHT22;7764;51.430;6.840;2023-02-01T16:56:17;8.60;99.90
15328;DHT22;7764;51.430;6.840;2023-02-01T16:58:45;8.60;99.90
15328;DHT22;7764;51.430;6.840;2023-02-01T17:01:15;8.60;99.90
15328;DHT22;7764;51.430;6.840;2023-02-01T17:03:44;8.60;99.90